Bagshot, United Kingdom
Current Conditions -  °F | °C
As of 6:20 PM on Saturday 20 Dec 2014 (Local Time) from EGLF Reporting Station
Clear Clear  
Wind Chill:   Ceiling: Unl
Heat Index:   Visibility: 6mi
Dew Point:   Wind: 8mph
Humidity: 81%   Direction: 260°W
Pressure: 30.42"   Gusts: NA
Location:  51.36°N, 0.69°W
Report Text: EGLF 201820Z 26007KT CAVOK 06/03 Q1030
Loading
Personal Weather Stations






























Interactive Weather Map New forecast layout! Learn more

10-Day Weather Forecast

Advertisements
Track Severe Weather on mobile